Terminal Aerodrome Forecast
Issued by NWS

Home | Current Version | Previous Version | Text Only | Print | Product List | Glossary Off
Versions: 1 2 3 4 5 6 7 8 9 10 11 12 13 14 15 16 17 18 19 20 21 22 23

509
FTUS43 KOAX 211424 AAA
TAFCDR
TAF AMD
KCDR 211424Z 2114/2212 04010KT P6SM VCSH SCT009 BKN040
      TEMPO 2114/2117 4SM -RA BKN008 OVC025
     FM212300 13022G32KT P6SM BKN050
     FM220300 15022G32KT P6SM -SHRA BKN050=

USA.gov is the U.S. government's official web portal to all federal, state and local government web resources and services.